createdAt,value
2018-08-12T00:00:54.923Z,13.64
2018-08-12T00:01:54.912Z,13.55
2018-08-12T00:02:54.917Z,13.54
2018-08-12T00:03:54.650Z,13.59
2018-08-12T00:04:54.641Z,13.6
2018-08-12T00:05:54.894Z,13.62
2018-08-12T00:06:54.882Z,13.55
2018-08-12T00:07:55.127Z,13.41
2018-08-12T00:08:54.886Z,13.52
2018-08-12T00:09:54.864Z,13.51
2018-08-12T00:10:54.865Z,13.46
2018-08-12T00:11:54.911Z,13.39
2018-08-12T00:12:54.877Z,13.42
2018-08-12T00:13:54.843Z,13.39
2018-08-12T00:14:54.579Z,13.45
2018-08-12T00:15:54.823Z,13.39
2018-08-12T00:16:54.563Z,13.42
2018-08-12T00:17:54.812Z,13.44
2018-08-12T00:18:54.553Z,13.42
2018-08-12T00:19:54.802Z,13.41
2018-08-12T00:20:54.789Z,13.38
2018-08-12T00:21:54.783Z,13.38
2018-08-12T00:22:54.775Z,13.28
2018-08-12T00:23:54.770Z,13.29
2018-08-12T00:24:54.767Z,13.3
2018-08-12T00:25:54.758Z,13.25
2018-08-12T00:26:54.497Z,13.25
2018-08-12T00:27:54.752Z,13.26
2018-08-12T00:28:54.738Z,13.26
2018-08-12T00:29:54.527Z,13.22
2018-08-12T00:30:54.726Z,13.26
2018-08-12T00:31:54.720Z,13.28
2018-08-12T00:32:54.713Z,13.19
2018-08-12T00:33:54.704Z,13.25
2018-08-12T00:34:54.695Z,13.26
2018-08-12T00:35:54.695Z,13.15
2018-08-12T00:36:54.685Z,13.12
2018-08-12T00:37:54.681Z,13.19
2018-08-12T00:38:54.668Z,13.19
2018-08-12T00:39:54.669Z,13.14
2018-08-12T00:40:54.655Z,13.15
2018-08-12T00:41:54.651Z,13.12
2018-08-12T00:42:54.642Z,13.15
2018-08-12T00:43:54.634Z,13.12
2018-08-12T00:44:54.628Z,13.1
2018-08-12T00:45:54.629Z,13.14
2018-08-12T00:46:54.613Z,13.12
2018-08-12T00:47:54.613Z,13.12
2018-08-12T00:48:54.610Z,13.1
2018-08-12T00:49:54.593Z,13.11
2018-08-12T00:50:54.335Z,12.97
2018-08-12T00:51:54.579Z,12.97
2018-08-12T00:52:54.589Z,13.01
2018-08-12T00:53:54.565Z,13
2018-08-12T00:54:54.565Z,13.03
2018-08-12T00:55:54.557Z,13.03
2018-08-12T00:56:54.294Z,13.01
2018-08-12T00:57:54.569Z,13.01
2018-08-12T00:58:54.536Z,12.96
2018-08-12T00:59:54.530Z,12.97
2018-08-12T01:00:54.519Z,13.01
2018-08-12T01:01:54.514Z,13.01
2018-08-12T01:02:54.253Z,13
2018-08-12T01:03:54.499Z,12.95
2018-08-12T01:04:54.489Z,13
2018-08-12T01:05:54.483Z,13.01
2018-08-12T01:06:54.476Z,13.01
2018-08-12T01:07:54.469Z,12.97
2018-08-12T01:08:54.467Z,13
2018-08-12T01:09:54.456Z,12.95
2018-08-12T01:10:54.449Z,12.97
2018-08-12T01:11:54.449Z,12.96
2018-08-12T01:12:54.183Z,12.96
2018-08-12T01:13:54.438Z,13.01
2018-08-12T01:14:54.424Z,12.95
2018-08-12T01:15:54.419Z,12.96
2018-08-12T01:16:54.409Z,13.04
2018-08-12T01:17:54.401Z,12.96
2018-08-12T01:18:54.145Z,12.9
2018-08-12T01:19:54.136Z,12.86
2018-08-12T01:20:54.381Z,12.86
2018-08-12T01:21:54.373Z,12.93
2018-08-12T01:22:54.380Z,12.87
2018-08-12T01:23:54.374Z,12.93
2018-08-12T01:24:54.114Z,12.82
2018-08-12T01:25:54.346Z,12.85
2018-08-12T01:26:54.086Z,12.85
2018-08-12T01:27:54.341Z,12.82
2018-08-12T01:28:54.326Z,12.79
2018-08-12T01:29:54.065Z,12.9
2018-08-12T01:30:54.312Z,12.83
2018-08-12T01:31:54.054Z,12.83
2018-08-12T01:32:54.301Z,12.78
2018-08-12T01:33:54.293Z,12.87
2018-08-12T01:34:54.285Z,12.77
2018-08-12T01:35:54.382Z,12.77
2018-08-12T01:36:54.017Z,12.78
2018-08-12T01:37:54.263Z,12.85
2018-08-12T01:38:54.007Z,12.78
2018-08-12T01:39:54.255Z,12.75
2018-08-12T01:40:54.244Z,12.74
2018-08-12T01:41:54.484Z,12.71
2018-08-12T01:42:54.228Z,12.75
2018-08-12T01:43:54.224Z,12.77
2018-08-12T01:44:53.961Z,12.75
2018-08-12T01:45:54.208Z,12.74
2018-08-12T01:46:54.199Z,12.72
2018-08-12T01:47:54.195Z,12.75
2018-08-12T01:48:54.202Z,12.74
2018-08-12T01:49:54.179Z,12.7
2018-08-12T01:50:54.184Z,12.68
2018-08-12T01:51:53.912Z,12.71
2018-08-12T01:52:54.155Z,12.71
2018-08-12T01:53:54.157Z,12.7
2018-08-12T01:54:54.143Z,12.68
2018-08-12T01:55:54.132Z,12.7
2018-08-12T01:56:53.877Z,12.7
2018-08-12T01:57:54.128Z,12.71
2018-08-12T01:58:53.877Z,12.74
2018-08-12T01:59:54.112Z,12.74
2018-08-12T02:00:53.849Z,12.72
2018-08-12T02:01:54.093Z,12.77
2018-08-12T02:02:54.093Z,12.74
2018-08-12T02:03:54.082Z,12.75
2018-08-12T02:04:54.076Z,12.74
2018-08-12T02:05:54.063Z,12.72
2018-08-12T02:06:54.057Z,12.75
2018-08-12T02:07:54.049Z,12.72
2018-08-12T02:08:54.042Z,12.74
2018-08-12T02:09:54.038Z,12.75
2018-08-12T02:10:54.027Z,12.72
2018-08-12T02:11:53.773Z,12.7
2018-08-12T02:12:54.266Z,12.71
2018-08-12T02:13:54.007Z,12.75
2018-08-12T02:14:54.004Z,12.71
2018-08-12T02:15:53.742Z,12.7
2018-08-12T02:16:53.990Z,12.65
2018-08-12T02:17:53.980Z,12.67
2018-08-12T02:18:53.970Z,12.68
2018-08-12T02:19:53.714Z,12.72
2018-08-12T02:20:53.961Z,12.74
2018-08-12T02:21:53.955Z,12.7
2018-08-12T02:22:53.944Z,12.6
2018-08-12T02:23:53.940Z,12.71
2018-08-12T02:24:53.934Z,12.64
2018-08-12T02:25:53.937Z,12.67
2018-08-12T02:26:53.918Z,12.64
2018-08-12T02:27:53.911Z,12.65
2018-08-12T02:28:53.899Z,12.65
2018-08-12T02:29:53.893Z,12.67
2018-08-12T02:30:53.890Z,12.67
2018-08-12T02:31:53.883Z,12.6
2018-08-12T02:32:53.633Z,12.59
2018-08-12T02:33:53.616Z,12.6
2018-08-12T02:34:53.861Z,12.56
2018-08-12T02:35:53.851Z,12.6
2018-08-12T02:36:53.597Z,12.56
2018-08-12T02:37:53.834Z,12.54
2018-08-12T02:38:53.833Z,12.56
2018-08-12T02:39:53.820Z,12.57
2018-08-12T02:40:53.816Z,12.6
2018-08-12T02:41:53.562Z,12.6
2018-08-12T02:42:53.548Z,12.57
2018-08-12T02:43:54.053Z,12.56
2018-08-12T02:44:53.536Z,12.57
2018-08-12T02:45:53.779Z,12.56
2018-08-12T02:46:53.830Z,12.59
2018-08-12T02:47:53.770Z,12.57
2018-08-12T02:48:53.758Z,12.57
2018-08-12T02:49:53.756Z,12.57
2018-08-12T02:50:53.745Z,12.53
2018-08-12T02:51:53.743Z,12.53
2018-08-12T02:52:53.729Z,12.5
2018-08-12T02:53:53.721Z,12.53
2018-08-12T02:54:53.729Z,12.5
2018-08-12T02:55:53.724Z,12.57
2018-08-12T02:56:53.704Z,12.49
2018-08-12T02:57:53.443Z,12.52
2018-08-12T02:58:53.694Z,12.49
2018-08-12T02:59:53.676Z,12.49
2018-08-12T03:00:53.672Z,12.49
2018-08-12T03:01:53.417Z,12.47
2018-08-12T03:02:53.662Z,12.47
2018-08-12T03:03:53.647Z,12.49
2018-08-12T03:04:53.650Z,12.47
2018-08-12T03:05:53.643Z,12.46
2018-08-12T03:06:53.626Z,12.49
2018-08-12T03:07:53.619Z,12.47
2018-08-12T03:08:53.611Z,12.45
2018-08-12T03:09:53.605Z,12.46
2018-08-12T03:10:53.599Z,12.52
2018-08-12T03:11:53.601Z,12.52
2018-08-12T03:12:53.329Z,12.52
2018-08-12T03:13:53.574Z,12.56
2018-08-12T03:14:53.572Z,12.5
2018-08-12T03:15:53.563Z,12.56
2018-08-12T03:16:53.308Z,12.56
2018-08-12T03:17:53.552Z,12.56
2018-08-12T03:18:53.537Z,12.59
2018-08-12T03:19:53.533Z,12.62
2018-08-12T03:20:53.275Z,12.53
2018-08-12T03:21:53.268Z,12.68
2018-08-12T03:22:53.509Z,12.7
2018-08-12T03:23:53.251Z,12.68
2018-08-12T03:24:53.502Z,12.67
2018-08-12T03:25:53.489Z,12.68
2018-08-12T03:26:53.478Z,12.74
2018-08-12T03:27:53.471Z,12.75
2018-08-12T03:28:53.464Z,12.74
2018-08-12T03:29:53.498Z,12.74
2018-08-12T03:30:53.457Z,12.78
2018-08-12T03:31:53.453Z,12.71
2018-08-12T03:32:53.442Z,12.83
2018-08-12T03:33:53.426Z,12.75
2018-08-12T03:34:53.423Z,12.79
2018-08-12T03:35:53.174Z,12.83
2018-08-12T03:36:53.411Z,12.87
2018-08-12T03:37:53.397Z,12.83
2018-08-12T03:38:53.139Z,12.79
2018-08-12T03:39:53.386Z,12.86
2018-08-12T03:40:53.377Z,12.9
2018-08-12T03:41:53.117Z,12.89
2018-08-12T03:42:53.362Z,12.97
2018-08-12T03:43:53.360Z,13.01
2018-08-12T03:44:53.346Z,13.05
2018-08-12T03:45:53.347Z,13.01
2018-08-12T03:46:53.334Z,13.04
2018-08-12T03:47:53.328Z,13.03
2018-08-12T03:48:53.467Z,13.08
2018-08-12T03:49:53.063Z,13.05
2018-08-12T03:50:53.305Z,13.07
2018-08-12T03:51:53.302Z,13.11
2018-08-12T03:52:53.297Z,13.11
2018-08-12T03:53:53.288Z,13.22
2018-08-12T03:54:53.283Z,13.15
2018-08-12T03:55:53.272Z,13.22
2018-08-12T03:56:53.267Z,13.28
2018-08-12T03:57:53.257Z,13.25
2018-08-12T03:58:53.277Z,13.19
2018-08-12T03:59:53.259Z,13.29
2018-08-12T04:00:53.236Z,13.33
2018-08-12T04:01:52.979Z,13.42
2018-08-12T04:02:53.222Z,13.39
2018-08-12T04:03:53.216Z,13.44
2018-08-12T04:04:52.957Z,13.42
2018-08-12T04:05:52.952Z,13.52
2018-08-12T04:06:53.198Z,13.55
2018-08-12T04:07:52.938Z,13.59
2018-08-12T04:08:53.191Z,13.62
2018-08-12T04:09:53.175Z,13.66
2018-08-12T04:10:52.918Z,13.7
2018-08-12T04:11:53.167Z,13.73
2018-08-12T04:12:53.156Z,13.75
2018-08-12T04:13:53.150Z,13.85
2018-08-12T04:14:53.149Z,13.89
2018-08-12T04:15:53.143Z,13.87
2018-08-12T04:16:53.131Z,14.1
2018-08-12T04:17:53.124Z,14.07
2018-08-12T04:18:53.288Z,14.2
2018-08-12T04:19:52.864Z,14.22
2018-08-12T04:20:53.104Z,14.22
2018-08-12T04:21:52.845Z,14.28
2018-08-12T04:22:53.100Z,14.35
2018-08-12T04:23:53.092Z,14.57
2018-08-12T04:24:53.080Z,14.62
2018-08-12T04:25:53.074Z,14.89
2018-08-12T04:26:53.080Z,14.95
2018-08-12T04:27:52.810Z,15.11
2018-08-12T04:28:53.058Z,15.21
2018-08-12T04:29:53.065Z,15.38
2018-08-12T04:30:53.046Z,15.39
2018-08-12T04:31:53.043Z,15.41
2018-08-12T04:32:53.035Z,15.56
2018-08-12T04:33:53.031Z,15.57
2018-08-12T04:34:52.780Z,15.76
2018-08-12T04:35:53.019Z,15.93
2018-08-12T04:36:53.015Z,16.05
2018-08-12T04:37:53.009Z,16.25
2018-08-12T04:38:52.754Z,16.48
2018-08-12T04:39:52.999Z,16.76
2018-08-12T04:40:53.000Z,16.91
2018-08-12T04:41:52.997Z,17.23
2018-08-12T04:42:52.987Z,17.38
2018-08-12T04:43:52.733Z,17.63
2018-08-12T04:44:52.981Z,17.81
2018-08-12T04:45:53.007Z,18.14
2018-08-12T04:46:52.721Z,18.33
2018-08-12T04:47:52.966Z,18.6
2018-08-12T04:48:53.218Z,19
2018-08-12T04:49:52.712Z,19.22
2018-08-12T04:50:52.708Z,19.46
2018-08-12T04:51:52.957Z,19.88
2018-08-12T04:52:52.952Z,20.01
2018-08-12T04:53:52.698Z,20.32
2018-08-12T04:54:52.948Z,20.57
2018-08-12T04:55:52.950Z,20.8
2018-08-12T04:56:52.693Z,21.12
2018-08-12T04:57:52.946Z,21.35
2018-08-12T04:58:52.690Z,21.58
2018-08-12T04:59:52.689Z,21.83
2018-08-12T05:00:52.694Z,22.09
2018-08-12T05:01:52.941Z,22.42
2018-08-12T05:02:52.939Z,22.62
2018-08-12T05:03:52.941Z,22.82
2018-08-12T05:04:52.939Z,23.1
2018-08-12T05:05:52.692Z,23.43
2018-08-12T05:06:52.941Z,23.7
2018-08-12T05:07:52.940Z,23.88
2018-08-12T05:08:52.950Z,24.15
2018-08-12T05:09:52.693Z,24.35
2018-08-12T05:10:52.945Z,24.61
2018-08-12T05:11:52.944Z,24.87
2018-08-12T05:12:52.945Z,25.03
2018-08-12T05:13:52.952Z,25.27
2018-08-12T05:14:52.952Z,25.46
2018-08-12T05:15:52.965Z,25.67
2018-08-12T05:16:52.707Z,25.92
2018-08-12T05:17:52.707Z,26.01
2018-08-12T05:18:52.963Z,26.32
2018-08-12T05:19:53.216Z,26.47
2018-08-12T05:20:52.719Z,26.69
2018-08-12T05:21:52.977Z,26.81
2018-08-12T05:22:53.029Z,26.97
2018-08-12T05:23:52.986Z,27.03
2018-08-12T05:24:52.987Z,27.28
2018-08-12T05:25:52.745Z,27.5
2018-08-12T05:26:52.999Z,27.69
2018-08-12T05:27:53.002Z,27.77
2018-08-12T05:28:53.010Z,28.03
2018-08-12T05:29:52.768Z,28.14
2018-08-12T05:30:53.019Z,28.25
2018-08-12T05:31:52.771Z,28.37
2018-08-12T05:32:53.029Z,28.4
2018-08-12T05:33:53.075Z,28.66
2018-08-12T05:34:53.038Z,28.73
2018-08-12T05:35:53.045Z,28.98
2018-08-12T05:36:52.548Z,29.11
2018-08-12T05:37:52.806Z,29.23
2018-08-12T05:38:53.067Z,29.42
2018-08-12T05:39:52.819Z,29.57
2018-08-12T05:40:52.827Z,29.65
2018-08-12T05:41:52.833Z,29.82
2018-08-12T05:42:53.090Z,30.05
2018-08-12T05:43:53.100Z,30.08
2018-08-12T05:44:52.853Z,30.27
2018-08-12T05:45:53.114Z,30.49
2018-08-12T05:46:53.120Z,30.51
2018-08-12T05:47:52.883Z,30.6
2018-08-12T05:48:53.136Z,30.84
2018-08-12T05:49:52.895Z,30.98
2018-08-12T05:50:53.415Z,31.07
2018-08-12T05:51:53.160Z,31.16
2018-08-12T05:52:53.165Z,31.32
2018-08-12T05:53:53.175Z,31.25
2018-08-12T05:54:53.186Z,31.38
2018-08-12T05:55:53.192Z,31.36
2018-08-12T05:56:53.209Z,31.56
2018-08-12T05:57:53.214Z,31.65
2018-08-12T05:58:53.220Z,31.7
2018-08-12T05:59:53.224Z,31.73
2018-08-12T06:00:53.235Z,31.88
2018-08-12T06:01:52.991Z,31.99
2018-08-12T06:02:53.611Z,32.04
2018-08-12T06:03:53.264Z,31.95
2018-08-12T06:04:53.274Z,31.99
2018-08-12T06:05:53.281Z,31.95
2018-08-12T06:06:53.302Z,32.01
2018-08-12T06:07:53.299Z,32.06
2018-08-12T06:08:53.126Z,32.15
2018-08-12T06:09:53.066Z,32.28
2018-08-12T06:10:53.326Z,32.52
2018-08-12T06:11:53.335Z,32.56
2018-08-12T06:12:53.345Z,32.67
2018-08-12T06:13:53.372Z,32.81
2018-08-12T06:14:53.112Z,33.04
2018-08-12T06:15:53.377Z,33.14
2018-08-12T06:16:53.147Z,33.19
2018-08-12T06:17:53.403Z,33.34
2018-08-12T06:18:53.414Z,33.42
2018-08-12T06:19:53.414Z,33.56
2018-08-12T06:20:53.423Z,33.63
2018-08-12T06:21:53.431Z,33.71
2018-08-12T06:22:53.452Z,33.75
2018-08-12T06:23:53.453Z,33.88
2018-08-12T06:24:53.217Z,34.02
2018-08-12T06:25:53.307Z,34.1
2018-08-12T06:26:53.485Z,34.25
2018-08-12T06:27:53.496Z,34.21
2018-08-12T06:28:53.255Z,34.34
2018-08-12T06:29:53.522Z,34.31
2018-08-12T06:30:53.533Z,34.28
2018-08-12T06:31:53.290Z,34.37
2018-08-12T06:32:53.556Z,34.37
2018-08-12T06:33:53.565Z,34.4
2018-08-12T06:34:53.326Z,34.37
2018-08-12T06:35:53.585Z,34.34
2018-08-12T06:36:53.344Z,34.24
2018-08-12T06:37:53.611Z,34.19
2018-08-12T06:38:53.618Z,34
2018-08-12T06:39:53.865Z,33.91
2018-08-12T06:40:53.642Z,33.79
2018-08-12T06:41:56.343Z,33.78
2018-08-12T06:42:53.419Z,33.6
2018-08-12T06:43:53.422Z,33.5
2018-08-12T06:44:53.687Z,33.5
2018-08-12T06:45:53.702Z,33.53
2018-08-12T06:46:53.454Z,33.57
2018-08-12T06:47:53.728Z,33.56
2018-08-12T06:49:53.737Z,33.63
2018-08-12T06:50:53.505Z,33.59
2018-08-12T06:51:54.002Z,33.44
2018-08-12T06:52:56.511Z,33.32
2018-08-12T06:53:53.783Z,33.11
2018-08-12T06:54:53.794Z,33.04
2018-08-12T06:55:53.805Z,33.12
2018-08-12T06:56:53.811Z,33.19
2018-08-12T06:57:53.825Z,33.31
2018-08-12T06:58:53.587Z,33.31
2018-08-12T06:59:53.845Z,33.49
2018-08-12T07:00:53.613Z,33.57
2018-08-12T07:01:53.614Z,33.59
2018-08-12T07:02:53.882Z,33.76
2018-08-12T07:03:53.895Z,33.75
2018-08-12T07:05:13.931Z,33.76
2018-08-12T07:05:53.660Z,33.81
2018-08-12T07:06:53.668Z,33.94
2018-08-12T07:08:53.945Z,34.16
2018-08-12T07:09:53.954Z,34.24
2018-08-12T07:10:53.462Z,34.4
2018-08-12T07:12:53.736Z,34.61
2018-08-12T07:13:53.998Z,34.8
2018-08-12T07:14:54.012Z,35.11
2018-08-12T07:15:54.026Z,35.37
2018-08-12T07:16:54.036Z,35.48
2018-08-12T07:17:54.049Z,35.71
2018-08-12T07:19:08.483Z,35.72
2018-08-12T07:19:54.069Z,35.93
2018-08-12T07:20:54.081Z,36.01
2018-08-12T07:21:54.096Z,36.01
2018-08-12T07:22:54.108Z,36.16
2018-08-12T07:23:54.119Z,36.31
2018-08-12T07:24:54.585Z,36.32
2018-08-12T07:25:54.146Z,36.37
2018-08-12T07:26:53.917Z,36.38
2018-08-12T07:27:53.920Z,36.41
2018-08-12T07:28:53.933Z,36.35
2018-08-12T07:29:53.951Z,36.38
2018-08-12T07:30:54.210Z,36.37
2018-08-12T07:31:54.241Z,36.27
2018-08-12T07:32:54.389Z,36.22
2018-08-12T07:33:54.253Z,36.29
2018-08-12T07:34:54.266Z,36.28
2018-08-12T07:35:54.277Z,36.32
2018-08-12T07:36:54.043Z,36.56
2018-08-12T07:37:54.305Z,36.65
2018-08-12T07:38:54.455Z,36.75
2018-08-12T07:39:54.336Z,36.65
2018-08-12T07:40:54.347Z,36.56
2018-08-12T07:41:54.362Z,36.62
2018-08-12T07:42:54.378Z,36.72
2018-08-12T07:43:54.394Z,36.81
2018-08-12T07:44:54.408Z,37.05
2018-08-12T07:45:54.422Z,37.22
2018-08-12T07:46:54.440Z,37.31
2018-08-12T07:47:54.449Z,37.46
2018-08-12T07:48:54.712Z,37.43
2018-08-12T07:49:54.479Z,37.59
2018-08-12T07:50:54.491Z,37.56
2018-08-12T07:51:55.787Z,37.5
2018-08-12T07:52:54.539Z,37.32
2018-08-12T07:53:54.535Z,37.07
2018-08-12T07:54:54.576Z,36.69
2018-08-12T07:55:54.755Z,36.53
2018-08-12T07:56:54.594Z,36.49
2018-08-12T07:57:54.351Z,36.46
2018-08-12T07:58:54.614Z,36.59
2018-08-12T07:59:54.633Z,36.71
2018-08-12T08:00:54.394Z,36.73
2018-08-12T08:01:57.213Z,36.78
2018-08-12T08:02:54.686Z,36.88
2018-08-12T08:03:54.445Z,37.03
2018-08-12T08:04:54.708Z,37.09
2018-08-12T08:05:54.727Z,36.95
2018-08-12T08:06:54.746Z,36.73
2018-08-12T08:07:54.765Z,36.8
2018-08-12T08:08:54.789Z,36.78
2018-08-12T08:09:54.792Z,36.83
2018-08-12T08:10:54.808Z,36.9
2018-08-12T08:12:10.716Z,37.03
2018-08-12T08:12:56.072Z,36.93
2018-08-12T08:13:54.863Z,36.76
2018-08-12T08:14:54.876Z,36.54
2018-08-12T08:15:54.899Z,36.49
2018-08-12T08:16:54.660Z,36.47
2018-08-12T08:17:54.931Z,36.53
2018-08-12T08:18:54.441Z,36.56
2018-08-12T08:19:55.459Z,36.51
2018-08-12T08:20:54.978Z,36.35
2018-08-12T08:21:55.000Z,36.13
2018-08-12T08:22:55.013Z,36.03
2018-08-12T08:23:55.025Z,35.87
2018-08-12T08:24:55.046Z,35.58
2018-08-12T08:25:55.554Z,35.43
2018-08-12T08:26:55.074Z,35.34
2018-08-12T08:27:55.087Z,35.09
2018-08-12T08:28:55.107Z,35
2018-08-12T08:29:54.871Z,34.8
2018-08-12T08:30:55.137Z,34.73
2018-08-12T08:31:56.971Z,34.56
2018-08-12T08:32:55.160Z,34.44
2018-08-12T08:33:54.923Z,34.43
2018-08-12T08:34:55.195Z,34.37
2018-08-12T08:35:55.206Z,34.22
2018-08-12T08:36:55.218Z,34.15
2018-08-12T08:37:55.020Z,33.98
2018-08-12T08:38:55.251Z,33.84
2018-08-12T08:39:55.008Z,33.66
2018-08-12T08:40:55.271Z,33.5
2018-08-12T08:41:55.291Z,33.21
2018-08-12T08:42:55.047Z,32.78
2018-08-12T08:43:55.094Z,32.28
2018-08-12T08:44:55.323Z,32.01
2018-08-12T08:45:55.337Z,31.66
2018-08-12T08:46:55.351Z,31.36
2018-08-12T08:47:55.397Z,31.07
2018-08-12T08:48:55.124Z,30.76
2018-08-12T08:49:55.224Z,30.54
2018-08-12T08:50:55.537Z,30.24
2018-08-12T08:51:55.402Z,30.1
2018-08-12T08:52:55.423Z,29.83
2018-08-12T08:53:55.170Z,29.7
2018-08-12T08:54:55.432Z,29.33
2018-08-12T08:55:56.072Z,29.15
2018-08-12T08:56:55.196Z,28.9
2018-08-12T08:57:55.708Z,28.76
2018-08-12T08:58:55.463Z,28.59
2018-08-12T08:59:55.224Z,28.54
2018-08-12T09:00:55.227Z,28.34
2018-08-12T09:01:55.488Z,28.09
2018-08-12T09:02:55.494Z,28.09
2018-08-12T09:03:55.504Z,27.99
2018-08-12T09:04:55.255Z,27.85
2018-08-12T09:05:55.511Z,27.75
2018-08-12T09:06:55.267Z,27.66
2018-08-12T09:07:55.763Z,27.49
2018-08-12T09:08:55.895Z,27.44
2018-08-12T09:09:55.536Z,27.21
2018-08-12T09:10:55.545Z,27.25
2018-08-12T09:11:55.551Z,27.04
2018-08-12T09:12:55.302Z,27.07
2018-08-12T09:13:55.558Z,27
2018-08-12T09:14:55.056Z,26.8
2018-08-12T09:15:55.562Z,26.8
2018-08-12T09:16:55.314Z,26.6
2018-08-12T09:17:55.591Z,26.51
2018-08-12T09:18:55.577Z,26.39
2018-08-12T09:19:55.591Z,26.39
2018-08-12T09:20:55.590Z,26.35
2018-08-12T09:21:55.082Z,26.33
2018-08-12T09:22:55.631Z,26.3
2018-08-12T09:23:55.097Z,26.26
2018-08-12T09:24:55.346Z,26.28
2018-08-12T09:25:55.608Z,26.3
2018-08-12T09:26:55.349Z,26.29
2018-08-12T09:27:55.604Z,26.29
2018-08-12T09:28:55.856Z,26.25
2018-08-12T09:29:55.360Z,26.15
2018-08-12T09:30:55.615Z,26.07
2018-08-12T09:31:55.614Z,26.05
2018-08-12T09:32:55.617Z,25.97
2018-08-12T09:33:55.367Z,25.99
2018-08-12T09:34:55.623Z,26.01
2018-08-12T09:35:55.635Z,25.94
2018-08-12T09:36:55.629Z,26.05
2018-08-12T09:37:55.379Z,25.97
2018-08-12T09:38:55.630Z,25.8
2018-08-12T09:39:55.384Z,25.88
2018-08-12T09:40:55.389Z,25.8
2018-08-12T09:41:55.660Z,25.82
2018-08-12T09:42:55.646Z,25.8
2018-08-12T09:43:55.396Z,25.72
2018-08-12T09:44:55.650Z,25.67
2018-08-12T09:45:55.429Z,25.73
2018-08-12T09:46:55.650Z,25.7
2018-08-12T09:47:55.654Z,25.72
2018-08-12T09:48:55.404Z,25.65
2018-08-12T09:49:55.657Z,25.72
2018-08-12T09:50:55.666Z,25.7
2018-08-12T09:51:55.787Z,25.73
2018-08-12T09:52:55.669Z,25.73
2018-08-12T09:53:55.412Z,25.69
2018-08-12T09:54:55.666Z,25.64
2018-08-12T09:55:55.668Z,25.65
2018-08-12T09:56:55.423Z,25.65
2018-08-12T09:57:55.672Z,25.64
2018-08-12T09:58:55.423Z,25.69
2018-08-12T09:59:55.696Z,25.58
2018-08-12T10:00:55.689Z,25.73
2018-08-12T10:01:55.428Z,25.64
2018-08-12T10:02:55.434Z,25.76
2018-08-12T10:03:55.434Z,25.77
2018-08-12T10:04:55.697Z,25.75
2018-08-12T10:05:55.685Z,25.76
2018-08-12T10:06:55.686Z,25.8
2018-08-12T10:07:55.695Z,25.73
2018-08-12T10:08:55.689Z,25.7
2018-08-12T10:09:55.691Z,25.75
2018-08-12T10:10:55.191Z,25.83
2018-08-12T10:11:55.446Z,25.83
2018-08-12T10:12:55.450Z,25.79
2018-08-12T10:13:55.701Z,25.7
2018-08-12T10:14:55.701Z,25.75
2018-08-12T10:15:55.704Z,25.79
2018-08-12T10:16:55.703Z,25.76
2018-08-12T10:17:55.457Z,25.77
2018-08-12T10:18:55.459Z,25.76
2018-08-12T10:19:57.186Z,25.79
2018-08-12T10:20:55.465Z,25.87
2018-08-12T10:22:55.718Z,25.87
2018-08-12T10:23:55.719Z,25.91
2018-08-12T10:24:55.730Z,25.88
2018-08-12T10:25:55.719Z,25.95
2018-08-12T10:26:55.721Z,25.98
2018-08-12T10:27:55.729Z,26.05
2018-08-12T10:28:55.725Z,25.98
2018-08-12T10:29:55.726Z,25.95
2018-08-12T10:30:55.726Z,26.06
2018-08-12T10:31:55.744Z,26.07
2018-08-12T10:32:55.479Z,25.98
2018-08-12T10:33:55.737Z,26.12
2018-08-12T10:34:55.483Z,26.07
2018-08-12T10:35:55.743Z,26.07
2018-08-12T10:36:55.737Z,26.12
2018-08-12T10:37:55.738Z,26.05
2018-08-12T10:38:55.740Z,26.06
2018-08-12T10:39:55.240Z,26.13
2018-08-12T10:40:55.744Z,26.13
2018-08-12T10:41:55.748Z,26.2
2018-08-12T10:42:55.496Z,26.21
2018-08-12T10:43:55.765Z,26.25
2018-08-12T10:44:55.501Z,26.25
2018-08-12T10:45:55.754Z,26.28
2018-08-12T10:46:55.760Z,26.32
2018-08-12T10:47:55.769Z,26.29
2018-08-12T10:48:55.821Z,26.29
2018-08-12T10:49:55.761Z,26.37
2018-08-12T10:50:56.182Z,26.29
2018-08-12T10:51:55.768Z,26.29
2018-08-12T10:52:55.517Z,26.36
2018-08-12T10:53:55.772Z,26.39
2018-08-12T10:54:55.521Z,26.45
2018-08-12T10:55:55.523Z,26.54
2018-08-12T10:56:55.525Z,26.52
2018-08-12T10:57:55.776Z,26.51
2018-08-12T10:58:55.526Z,26.6
2018-08-12T10:59:55.530Z,26.69
2018-08-12T11:00:55.533Z,26.72
2018-08-12T11:01:55.533Z,26.75
2018-08-12T11:02:55.534Z,26.67
2018-08-12T11:03:55.787Z,26.82
2018-08-12T11:04:55.804Z,26.82
2018-08-12T11:05:55.544Z,26.82
2018-08-12T11:06:55.289Z,26.84
2018-08-12T11:07:55.796Z,26.82
2018-08-12T11:08:55.801Z,26.89
2018-08-12T11:09:55.809Z,26.89
2018-08-12T11:10:55.803Z,26.94
2018-08-12T11:11:55.552Z,26.92
2018-08-12T11:12:55.806Z,27.02
2018-08-12T11:13:55.823Z,27.02
2018-08-12T11:14:55.562Z,26.99
2018-08-12T11:15:55.819Z,26.99
2018-08-12T11:16:55.564Z,26.99
2018-08-12T11:17:55.815Z,26.94
2018-08-12T11:18:55.818Z,26.92
2018-08-12T11:19:55.578Z,27.03
2018-08-12T11:20:55.573Z,27.04
2018-08-12T11:21:55.830Z,27.02
2018-08-12T11:22:55.847Z,27.09
2018-08-12T11:23:55.832Z,27.04
2018-08-12T11:24:55.834Z,27.04
2018-08-12T11:25:55.583Z,27.03
2018-08-12T11:26:55.837Z,27
2018-08-12T11:27:55.840Z,27.07
2018-08-12T11:28:55.590Z,27.1
2018-08-12T11:29:55.599Z,27.19
2018-08-12T11:30:55.601Z,27.12
2018-08-12T11:31:55.882Z,27.17
2018-08-12T11:32:55.851Z,27.1
2018-08-12T11:33:55.602Z,27.13
2018-08-12T11:34:56.154Z,27.19
2018-08-12T11:35:55.861Z,27.25
2018-08-12T11:36:55.617Z,27.19
2018-08-12T11:37:55.866Z,27.27
2018-08-12T11:38:55.616Z,27.29
2018-08-12T11:39:55.868Z,27.31
2018-08-12T11:40:55.871Z,27.28
2018-08-12T11:41:55.882Z,27.28
2018-08-12T11:42:55.624Z,27.24
2018-08-12T11:43:55.887Z,27.28
2018-08-12T11:44:55.880Z,27.27
2018-08-12T11:45:55.886Z,27.41
2018-08-12T11:46:55.884Z,27.4
2018-08-12T11:47:55.887Z,27.31
2018-08-12T11:48:55.640Z,27.29
2018-08-12T11:49:55.641Z,27.29
2018-08-12T11:50:55.897Z,27.28
2018-08-12T11:51:55.896Z,27.34
2018-08-12T11:52:55.650Z,27.32
2018-08-12T11:53:55.652Z,27.29
2018-08-12T11:54:55.905Z,27.29
2018-08-12T11:55:55.910Z,27.28
2018-08-12T11:56:56.026Z,27.19
2018-08-12T11:57:55.917Z,27.1
2018-08-12T11:58:55.916Z,27.1
2018-08-12T11:59:55.667Z,27.12
2018-08-12T12:00:55.921Z,27.17
2018-08-12T12:01:55.923Z,27.03
2018-08-12T12:02:55.935Z,27.09
2018-08-12T12:03:55.932Z,27.09
2018-08-12T12:04:55.938Z,27.06
2018-08-12T12:05:55.680Z,27.06
2018-08-12T12:06:55.946Z,27.02
2018-08-12T12:07:55.936Z,27.03
2018-08-12T12:08:55.939Z,27.02
2018-08-12T12:09:55.938Z,26.94
2018-08-12T12:10:55.690Z,27.03
2018-08-12T12:11:55.942Z,27.06
2018-08-12T12:12:55.949Z,26.99
2018-08-12T12:13:55.949Z,26.94
2018-08-12T12:14:55.959Z,26.94
2018-08-12T12:15:55.745Z,27.02
2018-08-12T12:16:55.453Z,27.03
2018-08-12T12:17:55.959Z,26.95
2018-08-12T12:18:55.959Z,26.92
2018-08-12T12:19:55.710Z,26.94
2018-08-12T12:20:55.959Z,26.89
2018-08-12T12:21:55.743Z,26.91
2018-08-12T12:22:55.970Z,26.8
2018-08-12T12:23:55.967Z,26.73
2018-08-12T12:24:55.971Z,26.81
2018-08-12T12:25:56.135Z,26.84
2018-08-12T12:26:55.721Z,26.84
2018-08-12T12:27:55.978Z,26.7
2018-08-12T12:28:55.985Z,26.81
2018-08-12T12:29:55.988Z,26.8
2018-08-12T12:30:55.988Z,26.87
2018-08-12T12:31:55.732Z,26.82
2018-08-12T12:32:56.042Z,26.75
2018-08-12T12:33:55.736Z,26.77
2018-08-12T12:34:55.988Z,26.82
2018-08-12T12:35:55.993Z,26.88
2018-08-12T12:36:55.994Z,26.81
2018-08-12T12:37:55.745Z,26.8
2018-08-12T12:38:55.996Z,26.8
2018-08-12T12:39:55.997Z,26.82
2018-08-12T12:40:56.002Z,26.82
2018-08-12T12:41:56.002Z,26.84
2018-08-12T12:42:56.296Z,26.82
2018-08-12T12:43:56.006Z,26.8
2018-08-12T12:44:55.755Z,26.8
2018-08-12T12:45:56.010Z,26.81
2018-08-12T12:46:55.764Z,26.67
2018-08-12T12:47:55.762Z,26.67
2018-08-12T12:48:56.013Z,26.72
2018-08-12T12:49:56.017Z,26.67
2018-08-12T12:50:56.022Z,26.69
2018-08-12T12:51:56.020Z,26.66
2018-08-12T12:52:56.024Z,26.67
2018-08-12T12:53:56.028Z,26.7
2018-08-12T12:54:55.783Z,26.72
2018-08-12T12:55:56.028Z,26.67
2018-08-12T12:56:55.778Z,26.73
2018-08-12T12:57:56.079Z,26.7
2018-08-12T12:58:56.036Z,26.67
2018-08-12T12:59:56.036Z,26.73
2018-08-12T13:00:56.037Z,26.72